sensor_id;sensor_type;location;lat;lon;timestamp;P1;durP1;ratioP1;P2;durP2;ratioP2
16510;SDS011;8368;48.772;8.754;2024-01-15T00:01:35;7.00;;;3.90;;
16510;SDS011;8368;48.772;8.754;2024-01-15T00:04:01;10.03;;;4.17;;
16510;SDS011;8368;48.772;8.754;2024-01-15T00:06:26;14.00;;;5.13;;
16510;SDS011;8368;48.772;8.754;2024-01-15T00:08:53;12.03;;;5.00;;
16510;SDS011;8368;48.772;8.754;2024-01-15T00:11:19;18.80;;;5.63;;
16510;SDS011;8368;48.772;8.754;2024-01-15T00:13:44;9.60;;;4.33;;
16510;SDS011;8368;48.772;8.754;2024-01-15T00:16:10;10.73;;;4.83;;
16510;SDS011;8368;48.772;8.754;2024-01-15T00:18:35;11.53;;;5.23;;
16510;SDS011;8368;48.772;8.754;2024-01-15T00:21:01;11.83;;;5.27;;
16510;SDS011;8368;48.772;8.754;2024-01-15T00:23:27;12.30;;;5.70;;
16510;SDS011;8368;48.772;8.754;2024-01-15T00:25:52;17.57;;;5.77;;
16510;SDS011;8368;48.772;8.754;2024-01-15T00:28:18;14.87;;;5.17;;
16510;SDS011;8368;48.772;8.754;2024-01-15T00:30:43;9.70;;;4.67;;
16510;SDS011;8368;48.772;8.754;2024-01-15T00:33:09;12.90;;;4.87;;
16510;SDS011;8368;48.772;8.754;2024-01-15T00:35:37;14.63;;;5.10;;
16510;SDS011;8368;48.772;8.754;2024-01-15T00:38:02;14.60;;;5.30;;
16510;SDS011;8368;48.772;8.754;2024-01-15T00:40:28;13.17;;;5.03;;
16510;SDS011;8368;48.772;8.754;2024-01-15T00:42:53;14.40;;;5.80;;
16510;SDS011;8368;48.772;8.754;2024-01-15T00:45:19;16.57;;;5.90;;
16510;SDS011;8368;48.772;8.754;2024-01-15T00:47:44;8.83;;;4.80;;
16510;SDS011;8368;48.772;8.754;2024-01-15T00:50:10;14.47;;;5.10;;
16510;SDS011;8368;48.772;8.754;2024-01-15T00:52:36;14.83;;;4.67;;
16510;SDS011;8368;48.772;8.754;2024-01-15T00:55:01;11.47;;;5.23;;
16510;SDS011;8368;48.772;8.754;2024-01-15T00:57:27;16.63;;;5.43;;
16510;SDS011;8368;48.772;8.754;2024-01-15T00:59:52;10.73;;;4.43;;
16510;SDS011;8368;48.772;8.754;2024-01-15T01:02:18;13.47;;;5.30;;
16510;SDS011;8368;48.772;8.754;2024-01-15T01:04:43;13.30;;;4.60;;
16510;SDS011;8368;48.772;8.754;2024-01-15T01:07:09;16.73;;;5.40;;
16510;SDS011;8368;48.772;8.754;2024-01-15T01:09:34;15.10;;;5.30;;
16510;SDS011;8368;48.772;8.754;2024-01-15T01:12:00;15.07;;;5.43;;
16510;SDS011;8368;48.772;8.754;2024-01-15T01:14:25;16.80;;;5.90;;
16510;SDS011;8368;48.772;8.754;2024-01-15T01:16:51;12.33;;;4.53;;
16510;SDS011;8368;48.772;8.754;2024-01-15T01:19:17;9.23;;;4.60;;
16510;SDS011;8368;48.772;8.754;2024-01-15T01:21:42;14.47;;;5.47;;
16510;SDS011;8368;48.772;8.754;2024-01-15T01:24:08;9.87;;;5.03;;
16510;SDS011;8368;48.772;8.754;2024-01-15T01:26:33;12.97;;;5.00;;
16510;SDS011;8368;48.772;8.754;2024-01-15T01:28:59;8.17;;;4.80;;
16510;SDS011;8368;48.772;8.754;2024-01-15T01:31:24;8.17;;;4.53;;
16510;SDS011;8368;48.772;8.754;2024-01-15T01:33:50;10.63;;;4.93;;
16510;SDS011;8368;48.772;8.754;2024-01-15T01:36:15;15.20;;;5.67;;
16510;SDS011;8368;48.772;8.754;2024-01-15T01:38:41;9.87;;;4.07;;
16510;SDS011;8368;48.772;8.754;2024-01-15T01:41:06;12.03;;;4.93;;
16510;SDS011;8368;48.772;8.754;2024-01-15T01:43:32;12.80;;;5.40;;
16510;SDS011;8368;48.772;8.754;2024-01-15T01:45:58;10.57;;;4.77;;
16510;SDS011;8368;48.772;8.754;2024-01-15T01:48:25;12.97;;;4.73;;
16510;SDS011;8368;48.772;8.754;2024-01-15T01:50:55;12.83;;;5.13;;
16510;SDS011;8368;48.772;8.754;2024-01-15T01:53:23;12.10;;;4.73;;
16510;SDS011;8368;48.772;8.754;2024-01-15T01:55:50;9.47;;;3.90;;
16510;SDS011;8368;48.772;8.754;2024-01-15T01:58:16;15.57;;;5.10;;
16510;SDS011;8368;48.772;8.754;2024-01-15T02:00:42;15.80;;;5.27;;
16510;SDS011;8368;48.772;8.754;2024-01-15T02:03:08;11.70;;;4.87;;
16510;SDS011;8368;48.772;8.754;2024-01-15T02:05:34;12.20;;;4.73;;
16510;SDS011;8368;48.772;8.754;2024-01-15T02:08:00;9.97;;;4.67;;
16510;SDS011;8368;48.772;8.754;2024-01-15T02:10:25;11.27;;;4.57;;
16510;SDS011;8368;48.772;8.754;2024-01-15T02:12:51;13.67;;;4.93;;
16510;SDS011;8368;48.772;8.754;2024-01-15T02:15:16;12.73;;;4.33;;
16510;SDS011;8368;48.772;8.754;2024-01-15T02:18:04;11.20;;;4.97;;
16510;SDS011;8368;48.772;8.754;2024-01-15T02:20:31;9.63;;;3.80;;
16510;SDS011;8368;48.772;8.754;2024-01-15T02:25:42;12.03;;;4.70;;
16510;SDS011;8368;48.772;8.754;2024-01-15T02:28:10;9.20;;;4.67;;
16510;SDS011;8368;48.772;8.754;2024-01-15T02:30:37;9.20;;;5.00;;
16510;SDS011;8368;48.772;8.754;2024-01-15T02:33:04;15.00;;;5.93;;
16510;SDS011;8368;48.772;8.754;2024-01-15T02:35:30;15.27;;;5.13;;
16510;SDS011;8368;48.772;8.754;2024-01-15T02:37:56;11.90;;;5.37;;
16510;SDS011;8368;48.772;8.754;2024-01-15T02:40:22;13.93;;;4.77;;
16510;SDS011;8368;48.772;8.754;2024-01-15T02:42:47;11.07;;;4.37;;
16510;SDS011;8368;48.772;8.754;2024-01-15T02:45:13;13.00;;;4.43;;
16510;SDS011;8368;48.772;8.754;2024-01-15T02:47:38;14.20;;;5.03;;
16510;SDS011;8368;48.772;8.754;2024-01-15T02:50:04;14.90;;;4.33;;
16510;SDS011;8368;48.772;8.754;2024-01-15T02:52:30;8.63;;;4.43;;
16510;SDS011;8368;48.772;8.754;2024-01-15T02:54:55;11.83;;;4.70;;
16510;SDS011;8368;48.772;8.754;2024-01-15T02:57:21;10.53;;;3.90;;
16510;SDS011;8368;48.772;8.754;2024-01-15T02:59:46;10.23;;;4.60;;
16510;SDS011;8368;48.772;8.754;2024-01-15T03:02:12;10.37;;;3.93;;
16510;SDS011;8368;48.772;8.754;2024-01-15T03:04:37;12.43;;;4.90;;
16510;SDS011;8368;48.772;8.754;2024-01-15T03:07:07;11.93;;;4.27;;
16510;SDS011;8368;48.772;8.754;2024-01-15T03:09:33;10.13;;;3.87;;
16510;SDS011;8368;48.772;8.754;2024-01-15T03:11:58;10.07;;;4.57;;
16510;SDS011;8368;48.772;8.754;2024-01-15T03:14:24;9.43;;;4.53;;
16510;SDS011;8368;48.772;8.754;2024-01-15T03:16:51;8.67;;;4.00;;
16510;SDS011;8368;48.772;8.754;2024-01-15T03:19:17;12.27;;;4.00;;
16510;SDS011;8368;48.772;8.754;2024-01-15T03:21:42;7.03;;;3.67;;
16510;SDS011;8368;48.772;8.754;2024-01-15T03:24:08;9.70;;;4.03;;
16510;SDS011;8368;48.772;8.754;2024-01-15T03:26:33;7.80;;;3.50;;
16510;SDS011;8368;48.772;8.754;2024-01-15T03:28:59;10.10;;;4.57;;
16510;SDS011;8368;48.772;8.754;2024-01-15T03:31:24;7.13;;;2.83;;
16510;SDS011;8368;48.772;8.754;2024-01-15T03:33:50;9.33;;;4.13;;
16510;SDS011;8368;48.772;8.754;2024-01-15T03:36:15;9.70;;;3.23;;
16510;SDS011;8368;48.772;8.754;2024-01-15T03:38:41;8.70;;;3.57;;
16510;SDS011;8368;48.772;8.754;2024-01-15T03:41:07;7.07;;;3.93;;
16510;SDS011;8368;48.772;8.754;2024-01-15T03:43:33;8.00;;;3.93;;
16510;SDS011;8368;48.772;8.754;2024-01-15T03:45:58;6.87;;;3.40;;
16510;SDS011;8368;48.772;8.754;2024-01-15T03:48:24;6.37;;;3.50;;
16510;SDS011;8368;48.772;8.754;2024-01-15T03:50:49;9.10;;;3.67;;
16510;SDS011;8368;48.772;8.754;2024-01-15T03:53:15;7.70;;;3.60;;
16510;SDS011;8368;48.772;8.754;2024-01-15T03:55:41;5.33;;;3.27;;
16510;SDS011;8368;48.772;8.754;2024-01-15T03:58:07;6.73;;;3.73;;
16510;SDS011;8368;48.772;8.754;2024-01-15T04:00:33;6.87;;;3.87;;
16510;SDS011;8368;48.772;8.754;2024-01-15T04:02:59;8.97;;;4.23;;
16510;SDS011;8368;48.772;8.754;2024-01-15T04:05:25;5.37;;;2.93;;
16510;SDS011;8368;48.772;8.754;2024-01-15T04:07:51;7.73;;;2.90;;
16510;SDS011;8368;48.772;8.754;2024-01-15T04:10:16;8.10;;;3.57;;
16510;SDS011;8368;48.772;8.754;2024-01-15T04:12:42;5.43;;;2.80;;
16510;SDS011;8368;48.772;8.754;2024-01-15T04:15:07;7.40;;;3.37;;
16510;SDS011;8368;48.772;8.754;2024-01-15T04:17:33;7.37;;;2.63;;
16510;SDS011;8368;48.772;8.754;2024-01-15T04:19:59;8.17;;;3.40;;
16510;SDS011;8368;48.772;8.754;2024-01-15T04:22:24;5.90;;;3.17;;
16510;SDS011;8368;48.772;8.754;2024-01-15T04:24:50;6.53;;;3.17;;
16510;SDS011;8368;48.772;8.754;2024-01-15T04:27:16;6.03;;;3.60;;
16510;SDS011;8368;48.772;8.754;2024-01-15T04:29:41;5.90;;;3.07;;
16510;SDS011;8368;48.772;8.754;2024-01-15T04:32:09;6.80;;;3.20;;
16510;SDS011;8368;48.772;8.754;2024-01-15T04:34:35;4.27;;;2.83;;
16510;SDS011;8368;48.772;8.754;2024-01-15T04:37:00;4.87;;;3.00;;
16510;SDS011;8368;48.772;8.754;2024-01-15T04:39:26;5.53;;;3.13;;
16510;SDS011;8368;48.772;8.754;2024-01-15T04:41:51;8.33;;;3.47;;
16510;SDS011;8368;48.772;8.754;2024-01-15T04:44:17;7.40;;;3.73;;
16510;SDS011;8368;48.772;8.754;2024-01-15T04:46:43;4.20;;;2.50;;
16510;SDS011;8368;48.772;8.754;2024-01-15T04:49:09;7.30;;;3.10;;
16510;SDS011;8368;48.772;8.754;2024-01-15T04:51:35;5.60;;;3.10;;
16510;SDS011;8368;48.772;8.754;2024-01-15T04:54:01;5.87;;;3.20;;
16510;SDS011;8368;48.772;8.754;2024-01-15T04:56:27;7.83;;;3.43;;
16510;SDS011;8368;48.772;8.754;2024-01-15T04:58:52;7.40;;;3.27;;
16510;SDS011;8368;48.772;8.754;2024-01-15T05:01:18;5.40;;;3.10;;
16510;SDS011;8368;48.772;8.754;2024-01-15T05:03:43;6.80;;;2.83;;
16510;SDS011;8368;48.772;8.754;2024-01-15T05:06:09;5.87;;;3.23;;
16510;SDS011;8368;48.772;8.754;2024-01-15T05:08:34;5.93;;;3.10;;
16510;SDS011;8368;48.772;8.754;2024-01-15T05:11:00;4.83;;;2.63;;
16510;SDS011;8368;48.772;8.754;2024-01-15T05:13:25;5.20;;;2.90;;
16510;SDS011;8368;48.772;8.754;2024-01-15T05:15:51;4.13;;;2.60;;
16510;SDS011;8368;48.772;8.754;2024-01-15T05:18:17;4.30;;;2.40;;
16510;SDS011;8368;48.772;8.754;2024-01-15T05:20:42;2.57;;;2.37;;
16510;SDS011;8368;48.772;8.754;2024-01-15T05:23:08;4.97;;;2.47;;
16510;SDS011;8368;48.772;8.754;2024-01-15T05:25:33;4.97;;;2.57;;
16510;SDS011;8368;48.772;8.754;2024-01-15T05:27:59;3.67;;;2.50;;
16510;SDS011;8368;48.772;8.754;2024-01-15T05:30:24;5.30;;;2.83;;
16510;SDS011;8368;48.772;8.754;2024-01-15T05:32:50;5.27;;;3.03;;
16510;SDS011;8368;48.772;8.754;2024-01-15T05:35:15;5.47;;;2.63;;
16510;SDS011;8368;48.772;8.754;2024-01-15T05:37:43;5.47;;;2.80;;
16510;SDS011;8368;48.772;8.754;2024-01-15T05:40:10;4.53;;;2.33;;
16510;SDS011;8368;48.772;8.754;2024-01-15T05:42:36;2.73;;;2.30;;
16510;SDS011;8368;48.772;8.754;2024-01-15T05:45:01;2.83;;;2.30;;
16510;SDS011;8368;48.772;8.754;2024-01-15T05:47:29;3.63;;;2.23;;
16510;SDS011;8368;48.772;8.754;2024-01-15T05:49:55;2.40;;;1.93;;
16510;SDS011;8368;48.772;8.754;2024-01-15T05:52:21;2.93;;;2.00;;
16510;SDS011;8368;48.772;8.754;2024-01-15T05:54:47;6.33;;;2.33;;
16510;SDS011;8368;48.772;8.754;2024-01-15T05:57:13;2.63;;;1.97;;
16510;SDS011;8368;48.772;8.754;2024-01-15T05:59:38;4.53;;;2.27;;
16510;SDS011;8368;48.772;8.754;2024-01-15T06:02:04;3.13;;;2.30;;
16510;SDS011;8368;48.772;8.754;2024-01-15T06:04:29;4.90;;;2.10;;
16510;SDS011;8368;48.772;8.754;2024-01-15T06:06:55;3.10;;;2.17;;
16510;SDS011;8368;48.772;8.754;2024-01-15T06:09:20;7.50;;;2.60;;
16510;SDS011;8368;48.772;8.754;2024-01-15T06:11:46;3.03;;;2.30;;
16510;SDS011;8368;48.772;8.754;2024-01-15T06:14:11;4.17;;;2.03;;
16510;SDS011;8368;48.772;8.754;2024-01-15T06:16:37;1.93;;;1.70;;
16510;SDS011;8368;48.772;8.754;2024-01-15T06:19:02;5.87;;;2.67;;
16510;SDS011;8368;48.772;8.754;2024-01-15T06:21:28;3.23;;;1.83;;
16510;SDS011;8368;48.772;8.754;2024-01-15T06:23:53;3.93;;;1.87;;
16510;SDS011;8368;48.772;8.754;2024-01-15T06:26:21;3.73;;;2.43;;
16510;SDS011;8368;48.772;8.754;2024-01-15T06:28:49;2.87;;;2.67;;
16510;SDS011;8368;48.772;8.754;2024-01-15T06:31:15;3.33;;;2.37;;
16510;SDS011;8368;48.772;8.754;2024-01-15T06:33:41;4.83;;;2.40;;
16510;SDS011;8368;48.772;8.754;2024-01-15T06:36:06;2.50;;;2.30;;
16510;SDS011;8368;48.772;8.754;2024-01-15T06:38:32;5.47;;;3.03;;
16510;SDS011;8368;48.772;8.754;2024-01-15T06:40:58;5.30;;;2.87;;
16510;SDS011;8368;48.772;8.754;2024-01-15T06:43:23;3.60;;;2.63;;
16510;SDS011;8368;48.772;8.754;2024-01-15T06:45:49;6.73;;;3.47;;
16510;SDS011;8368;48.772;8.754;2024-01-15T06:48:14;4.17;;;3.10;;
16510;SDS011;8368;48.772;8.754;2024-01-15T06:50:41;5.27;;;3.03;;
16510;SDS011;8368;48.772;8.754;2024-01-15T06:53:08;3.93;;;2.90;;
16510;SDS011;8368;48.772;8.754;2024-01-15T06:55:33;5.83;;;3.70;;
16510;SDS011;8368;48.772;8.754;2024-01-15T06:57:59;5.97;;;3.40;;
16510;SDS011;8368;48.772;8.754;2024-01-15T07:00:25;6.60;;;3.20;;
16510;SDS011;8368;48.772;8.754;2024-01-15T07:02:50;7.27;;;3.13;;
16510;SDS011;8368;48.772;8.754;2024-01-15T07:05:16;7.40;;;3.73;;
16510;SDS011;8368;48.772;8.754;2024-01-15T07:07:42;3.47;;;3.17;;
16510;SDS011;8368;48.772;8.754;2024-01-15T07:10:08;7.50;;;3.37;;
16510;SDS011;8368;48.772;8.754;2024-01-15T07:12:33;4.60;;;3.20;;
16510;SDS011;8368;48.772;8.754;2024-01-15T07:14:59;5.87;;;3.17;;
16510;SDS011;8368;48.772;8.754;2024-01-15T07:17:24;11.53;;;3.90;;
16510;SDS011;8368;48.772;8.754;2024-01-15T07:19:50;6.87;;;3.63;;
16510;SDS011;8368;48.772;8.754;2024-01-15T07:22:15;5.63;;;3.20;;
16510;SDS011;8368;48.772;8.754;2024-01-15T07:24:42;4.87;;;3.33;;
16510;SDS011;8368;48.772;8.754;2024-01-15T07:27:08;8.83;;;3.57;;
16510;SDS011;8368;48.772;8.754;2024-01-15T07:29:34;5.23;;;2.90;;
16510;SDS011;8368;48.772;8.754;2024-01-15T07:32:02;6.23;;;2.93;;
16510;SDS011;8368;48.772;8.754;2024-01-15T07:34:28;7.30;;;3.77;;
16510;SDS011;8368;48.772;8.754;2024-01-15T07:36:54;6.37;;;3.50;;
16510;SDS011;8368;48.772;8.754;2024-01-15T07:39:19;4.50;;;2.63;;
16510;SDS011;8368;48.772;8.754;2024-01-15T07:41:45;6.90;;;3.37;;
16510;SDS011;8368;48.772;8.754;2024-01-15T07:44:10;6.33;;;3.30;;
16510;SDS011;8368;48.772;8.754;2024-01-15T07:46:36;3.77;;;2.90;;
16510;SDS011;8368;48.772;8.754;2024-01-15T07:49:01;6.30;;;3.40;;
16510;SDS011;8368;48.772;8.754;2024-01-15T07:51:28;4.53;;;3.23;;
16510;SDS011;8368;48.772;8.754;2024-01-15T07:53:54;5.63;;;3.60;;
16510;SDS011;8368;48.772;8.754;2024-01-15T07:56:23;6.47;;;3.40;;
16510;SDS011;8368;48.772;8.754;2024-01-15T07:58:48;4.20;;;3.03;;
16510;SDS011;8368;48.772;8.754;2024-01-15T08:01:14;6.30;;;3.73;;
16510;SDS011;8368;48.772;8.754;2024-01-15T08:03:40;9.47;;;5.03;;
16510;SDS011;8368;48.772;8.754;2024-01-15T08:06:05;8.67;;;5.27;;
16510;SDS011;8368;48.772;8.754;2024-01-15T08:08:31;6.47;;;3.53;;
16510;SDS011;8368;48.772;8.754;2024-01-15T08:10:56;7.77;;;3.80;;
16510;SDS011;8368;48.772;8.754;2024-01-15T08:13:22;7.67;;;3.80;;
16510;SDS011;8368;48.772;8.754;2024-01-15T08:15:47;9.73;;;4.50;;
16510;SDS011;8368;48.772;8.754;2024-01-15T08:18:13;8.77;;;4.20;;
16510;SDS011;8368;48.772;8.754;2024-01-15T08:20:39;3.97;;;3.30;;
16510;SDS011;8368;48.772;8.754;2024-01-15T08:23:04;5.17;;;3.50;;
16510;SDS011;8368;48.772;8.754;2024-01-15T08:25:30;6.77;;;3.57;;
16510;SDS011;8368;48.772;8.754;2024-01-15T08:27:56;8.37;;;3.30;;
16510;SDS011;8368;48.772;8.754;2024-01-15T08:30:22;7.60;;;3.57;;
16510;SDS011;8368;48.772;8.754;2024-01-15T08:32:52;4.23;;;2.67;;
16510;SDS011;8368;48.772;8.754;2024-01-15T08:35:20;3.43;;;2.67;;
16510;SDS011;8368;48.772;8.754;2024-01-15T08:37:50;8.70;;;4.00;;
16510;SDS011;8368;48.772;8.754;2024-01-15T08:40:17;5.30;;;3.07;;
16510;SDS011;8368;48.772;8.754;2024-01-15T08:42:43;4.60;;;2.67;;
16510;SDS011;8368;48.772;8.754;2024-01-15T08:45:09;4.87;;;2.43;;
16510;SDS011;8368;48.772;8.754;2024-01-15T08:47:34;10.30;;;4.38;;
16510;SDS011;8368;48.772;8.754;2024-01-15T08:50:01;11.00;;;3.60;;
16510;SDS011;8368;48.772;8.754;2024-01-15T08:52:27;4.17;;;2.90;;
16510;SDS011;8368;48.772;8.754;2024-01-15T08:54:52;6.43;;;2.60;;
16510;SDS011;8368;48.772;8.754;2024-01-15T08:57:19;8.87;;;3.73;;
16510;SDS011;8368;48.772;8.754;2024-01-15T08:59:45;9.10;;;3.43;;
16510;SDS011;8368;48.772;8.754;2024-01-15T09:02:10;3.47;;;2.60;;
16510;SDS011;8368;48.772;8.754;2024-01-15T09:04:36;5.50;;;3.10;;
16510;SDS011;8368;48.772;8.754;2024-01-15T09:07:03;4.57;;;2.83;;
16510;SDS011;8368;48.772;8.754;2024-01-15T09:09:28;3.03;;;2.77;;
16510;SDS011;8368;48.772;8.754;2024-01-15T09:11:54;5.80;;;2.53;;
16510;SDS011;8368;48.772;8.754;2024-01-15T09:14:19;6.87;;;2.27;;
16510;SDS011;8368;48.772;8.754;2024-01-15T09:16:47;4.07;;;2.77;;
16510;SDS011;8368;48.772;8.754;2024-01-15T09:19:12;4.93;;;2.53;;
16510;SDS011;8368;48.772;8.754;2024-01-15T09:21:38;4.53;;;3.13;;
16510;SDS011;8368;48.772;8.754;2024-01-15T09:24:05;7.23;;;3.63;;
16510;SDS011;8368;48.772;8.754;2024-01-15T09:26:30;5.57;;;3.20;;
16510;SDS011;8368;48.772;8.754;2024-01-15T09:28:56;7.40;;;3.13;;
16510;SDS011;8368;48.772;8.754;2024-01-15T09:31:22;5.53;;;3.00;;
16510;SDS011;8368;48.772;8.754;2024-01-15T09:33:48;9.10;;;3.53;;
16510;SDS011;8368;48.772;8.754;2024-01-15T09:36:16;8.27;;;3.20;;
16510;SDS011;8368;48.772;8.754;2024-01-15T09:38:42;10.10;;;4.50;;
16510;SDS011;8368;48.772;8.754;2024-01-15T09:41:07;5.00;;;3.37;;
16510;SDS011;8368;48.772;8.754;2024-01-15T09:43:33;9.53;;;3.27;;
16510;SDS011;8368;48.772;8.754;2024-01-15T09:45:59;5.77;;;3.27;;
16510;SDS011;8368;48.772;8.754;2024-01-15T09:48:25;4.70;;;3.10;;
16510;SDS011;8368;48.772;8.754;2024-01-15T09:50:50;5.37;;;3.53;;
16510;SDS011;8368;48.772;8.754;2024-01-15T09:53:17;5.57;;;3.60;;
16510;SDS011;8368;48.772;8.754;2024-01-15T09:55:44;3.20;;;2.60;;
16510;SDS011;8368;48.772;8.754;2024-01-15T09:58:10;3.63;;;2.67;;
16510;SDS011;8368;48.772;8.754;2024-01-15T10:00:35;6.93;;;3.23;;
16510;SDS011;8368;48.772;8.754;2024-01-15T10:03:04;5.40;;;3.20;;
16510;SDS011;8368;48.772;8.754;2024-01-15T10:05:31;4.73;;;2.57;;
16510;SDS011;8368;48.772;8.754;2024-01-15T10:07:57;3.03;;;1.90;;
16510;SDS011;8368;48.772;8.754;2024-01-15T10:10:25;2.00;;;1.90;;
16510;SDS011;8368;48.772;8.754;2024-01-15T10:12:50;6.10;;;2.33;;
16510;SDS011;8368;48.772;8.754;2024-01-15T10:15:16;3.37;;;1.90;;
16510;SDS011;8368;48.772;8.754;2024-01-15T10:17:42;2.83;;;2.50;;
16510;SDS011;8368;48.772;8.754;2024-01-15T10:20:11;2.80;;;2.03;;
16510;SDS011;8368;48.772;8.754;2024-01-15T10:22:41;5.20;;;2.27;;
16510;SDS011;8368;48.772;8.754;2024-01-15T10:25:11;3.97;;;2.10;;
16510;SDS011;8368;48.772;8.754;2024-01-15T10:27:37;3.07;;;2.17;;
16510;SDS011;8368;48.772;8.754;2024-01-15T10:30:03;2.50;;;2.30;;
16510;SDS011;8368;48.772;8.754;2024-01-15T10:32:29;2.73;;;2.50;;
16510;SDS011;8368;48.772;8.754;2024-01-15T10:34:55;4.43;;;2.60;;
16510;SDS011;8368;48.772;8.754;2024-01-15T10:37:23;2.07;;;1.87;;
16510;SDS011;8368;48.772;8.754;2024-01-15T10:39:49;3.43;;;3.00;;
16510;SDS011;8368;48.772;8.754;2024-01-15T10:42:15;3.83;;;2.73;;
16510;SDS011;8368;48.772;8.754;2024-01-15T10:44:43;3.10;;;2.33;;
16510;SDS011;8368;48.772;8.754;2024-01-15T10:47:09;4.50;;;2.70;;
16510;SDS011;8368;48.772;8.754;2024-01-15T10:49:36;3.93;;;2.90;;
16510;SDS011;8368;48.772;8.754;2024-01-15T10:52:01;5.17;;;2.43;;
16510;SDS011;8368;48.772;8.754;2024-01-15T10:54:27;4.00;;;2.40;;
16510;SDS011;8368;48.772;8.754;2024-01-15T10:56:54;28.37;;;11.27;;
16510;SDS011;8368;48.772;8.754;2024-01-15T10:59:21;3.53;;;3.17;;
16510;SDS011;8368;48.772;8.754;2024-01-15T11:01:50;3.40;;;2.67;;
16510;SDS011;8368;48.772;8.754;2024-01-15T11:04:19;6.53;;;3.30;;
16510;SDS011;8368;48.772;8.754;2024-01-15T11:06:50;22.40;;;10.23;;
16510;SDS011;8368;48.772;8.754;2024-01-15T11:09:21;15.43;;;6.40;;
16510;SDS011;8368;48.772;8.754;2024-01-15T11:11:46;4.73;;;3.40;;
16510;SDS011;8368;48.772;8.754;2024-01-15T11:17:22;8.33;;;3.97;;
16510;SDS011;8368;48.772;8.754;2024-01-15T11:19:48;10.20;;;3.43;;
16510;SDS011;8368;48.772;8.754;2024-01-15T11:24:55;3.17;;;2.60;;
16510;SDS011;8368;48.772;8.754;2024-01-15T11:30:09;3.03;;;2.20;;
16510;SDS011;8368;48.772;8.754;2024-01-15T11:32:36;3.60;;;2.63;;
16510;SDS011;8368;48.772;8.754;2024-01-15T11:35:02;2.17;;;2.07;;
16510;SDS011;8368;48.772;8.754;2024-01-15T11:38:15;3.07;;;2.40;;
16510;SDS011;8368;48.772;8.754;2024-01-15T11:40:17;3.60;;;2.30;;
16510;SDS011;8368;48.772;8.754;2024-01-15T11:42:44;3.27;;;2.10;;
16510;SDS011;8368;48.772;8.754;2024-01-15T11:45:10;3.63;;;2.47;;
16510;SDS011;8368;48.772;8.754;2024-01-15T11:47:42;2.53;;;2.30;;
16510;SDS011;8368;48.772;8.754;2024-01-15T11:50:15;2.53;;;1.97;;
16510;SDS011;8368;48.772;8.754;2024-01-15T11:52:40;3.63;;;2.03;;
16510;SDS011;8368;48.772;8.754;2024-01-15T11:55:19;3.77;;;2.17;;
16510;SDS011;8368;48.772;8.754;2024-01-15T11:57:51;3.10;;;2.10;;
16510;SDS011;8368;48.772;8.754;2024-01-15T12:00:19;3.17;;;2.20;;
16510;SDS011;8368;48.772;8.754;2024-01-15T12:02:46;3.47;;;2.37;;
16510;SDS011;8368;48.772;8.754;2024-01-15T12:05:13;3.97;;;2.50;;
16510;SDS011;8368;48.772;8.754;2024-01-15T12:07:40;3.73;;;1.90;;
16510;SDS011;8368;48.772;8.754;2024-01-15T12:10:10;2.00;;;1.80;;
16510;SDS011;8368;48.772;8.754;2024-01-15T12:15:09;2.97;;;1.60;;
16510;SDS011;8368;48.772;8.754;2024-01-15T12:17:35;1.67;;;1.30;;
16510;SDS011;8368;48.772;8.754;2024-01-15T12:20:01;1.10;;;1.10;;
16510;SDS011;8368;48.772;8.754;2024-01-15T12:22:28;1.07;;;1.07;;
16510;SDS011;8368;48.772;8.754;2024-01-15T12:24:54;1.60;;;1.10;;
16510;SDS011;8368;48.772;8.754;2024-01-15T12:27:19;1.20;;;1.10;;
16510;SDS011;8368;48.772;8.754;2024-01-15T12:29:45;1.67;;;1.57;;
16510;SDS011;8368;48.772;8.754;2024-01-15T12:32:11;1.37;;;1.27;;
16510;SDS011;8368;48.772;8.754;2024-01-15T12:34:37;1.20;;;1.10;;
16510;SDS011;8368;48.772;8.754;2024-01-15T12:37:03;1.30;;;1.20;;
16510;SDS011;8368;48.772;8.754;2024-01-15T12:39:29;1.60;;;1.47;;
16510;SDS011;8368;48.772;8.754;2024-01-15T12:41:54;8.97;;;3.63;;
16510;SDS011;8368;48.772;8.754;2024-01-15T12:44:20;3.97;;;2.63;;
16510;SDS011;8368;48.772;8.754;2024-01-15T12:46:46;1.80;;;1.70;;
16510;SDS011;8368;48.772;8.754;2024-01-15T12:49:12;2.30;;;2.20;;
16510;SDS011;8368;48.772;8.754;2024-01-15T12:51:38;2.83;;;1.90;;
16510;SDS011;8368;48.772;8.754;2024-01-15T12:54:04;2.80;;;1.60;;
16510;SDS011;8368;48.772;8.754;2024-01-15T12:56:29;1.50;;;1.40;;
16510;SDS011;8368;48.772;8.754;2024-01-15T12:58:55;1.93;;;1.17;;
16510;SDS011;8368;48.772;8.754;2024-01-15T13:01:21;2.30;;;2.20;;
16510;SDS011;8368;48.772;8.754;2024-01-15T13:03:46;1.37;;;1.10;;
16510;SDS011;8368;48.772;8.754;2024-01-15T13:06:12;2.23;;;1.53;;
16510;SDS011;8368;48.772;8.754;2024-01-15T13:08:38;2.03;;;1.57;;
16510;SDS011;8368;48.772;8.754;2024-01-15T13:11:03;2.33;;;2.00;;
16510;SDS011;8368;48.772;8.754;2024-01-15T13:13:29;2.37;;;1.80;;
16510;SDS011;8368;48.772;8.754;2024-01-15T13:15:55;1.67;;;1.57;;
16510;SDS011;8368;48.772;8.754;2024-01-15T13:18:21;1.80;;;1.63;;
16510;SDS011;8368;48.772;8.754;2024-01-15T13:20:46;4.60;;;3.40;;
16510;SDS011;8368;48.772;8.754;2024-01-15T13:23:12;2.53;;;2.40;;
16510;SDS011;8368;48.772;8.754;2024-01-15T13:25:37;1.37;;;1.37;;
16510;SDS011;8368;48.772;8.754;2024-01-15T13:28:04;2.00;;;1.80;;
16510;SDS011;8368;48.772;8.754;2024-01-15T13:30:30;1.93;;;1.83;;
16510;SDS011;8368;48.772;8.754;2024-01-15T13:32:56;1.33;;;1.23;;
16510;SDS011;8368;48.772;8.754;2024-01-15T13:35:22;1.60;;;1.50;;
16510;SDS011;8368;48.772;8.754;2024-01-15T13:37:48;2.87;;;2.43;;
16510;SDS011;8368;48.772;8.754;2024-01-15T13:40:13;1.60;;;1.50;;
16510;SDS011;8368;48.772;8.754;2024-01-15T13:42:45;2.00;;;1.77;;
16510;SDS011;8368;48.772;8.754;2024-01-15T13:45:11;3.03;;;1.50;;
16510;SDS011;8368;48.772;8.754;2024-01-15T13:47:39;1.60;;;1.60;;
16510;SDS011;8368;48.772;8.754;2024-01-15T13:50:08;2.60;;;2.40;;
16510;SDS011;8368;48.772;8.754;2024-01-15T13:52:34;2.17;;;1.87;;
16510;SDS011;8368;48.772;8.754;2024-01-15T13:55:01;1.77;;;1.40;;
16510;SDS011;8368;48.772;8.754;2024-01-15T13:57:26;1.53;;;1.47;;
16510;SDS011;8368;48.772;8.754;2024-01-15T13:59:52;1.83;;;1.73;;
16510;SDS011;8368;48.772;8.754;2024-01-15T14:02:17;1.90;;;1.80;;
16510;SDS011;8368;48.772;8.754;2024-01-15T14:04:45;2.50;;;1.83;;
16510;SDS011;8368;48.772;8.754;2024-01-15T14:07:10;2.50;;;2.30;;
16510;SDS011;8368;48.772;8.754;2024-01-15T14:09:36;2.10;;;1.90;;
16510;SDS011;8368;48.772;8.754;2024-01-15T14:12:02;2.20;;;2.00;;
16510;SDS011;8368;48.772;8.754;2024-01-15T14:14:28;2.97;;;2.37;;
16510;SDS011;8368;48.772;8.754;2024-01-15T14:16:53;3.13;;;2.37;;
16510;SDS011;8368;48.772;8.754;2024-01-15T14:19:19;2.30;;;2.10;;
16510;SDS011;8368;48.772;8.754;2024-01-15T14:21:45;2.37;;;2.23;;
16510;SDS011;8368;48.772;8.754;2024-01-15T14:24:11;2.37;;;2.27;;
16510;SDS011;8368;48.772;8.754;2024-01-15T14:26:36;2.63;;;2.43;;
16510;SDS011;8368;48.772;8.754;2024-01-15T14:29:02;2.37;;;2.17;;
16510;SDS011;8368;48.772;8.754;2024-01-15T14:31:27;3.27;;;2.50;;
16510;SDS011;8368;48.772;8.754;2024-01-15T14:33:53;3.23;;;2.57;;
16510;SDS011;8368;48.772;8.754;2024-01-15T14:36:20;5.23;;;2.67;;
16510;SDS011;8368;48.772;8.754;2024-01-15T14:38:45;3.20;;;2.73;;
16510;SDS011;8368;48.772;8.754;2024-01-15T14:41:11;4.40;;;3.60;;
16510;SDS011;8368;48.772;8.754;2024-01-15T14:43:37;6.77;;;3.27;;
16510;SDS011;8368;48.772;8.754;2024-01-15T14:46:02;6.33;;;2.97;;
16510;SDS011;8368;48.772;8.754;2024-01-15T14:48:28;4.60;;;3.07;;
16510;SDS011;8368;48.772;8.754;2024-01-15T14:50:54;4.37;;;3.57;;
16510;SDS011;8368;48.772;8.754;2024-01-15T14:53:20;5.03;;;3.47;;
16510;SDS011;8368;48.772;8.754;2024-01-15T14:55:46;5.10;;;3.23;;
16510;SDS011;8368;48.772;8.754;2024-01-15T14:58:11;7.73;;;3.87;;
16510;SDS011;8368;48.772;8.754;2024-01-15T15:00:37;5.87;;;3.57;;
16510;SDS011;8368;48.772;8.754;2024-01-15T15:03:02;3.77;;;3.20;;
16510;SDS011;8368;48.772;8.754;2024-01-15T15:05:28;5.07;;;3.17;;